Terminal Aerodrome Forecast
Issued by NWS

Home | Current Version | Previous Version | Graphics & Text | Print | Product List | Glossary On
Versions: 1 2 3 4 5 6 7 8 9 10 11 12 13 14 15
000
FTUS43 KGRB 211103 AAB
TAFMTW
TAF AMD
KMTW 211103Z 2111/2206 21010G16KT 4SM BR SCT015 BKN070
      TEMPO 2111/2113 1SM BR BKN015
     FM211300 26010G17KT P6SM SCT015 BKN020
     FM211600 27007KT P6SM SCT012 BKN250
     FM211900 22008KT P6SM FEW250=

USA.gov is the U.S. government's official web portal to all federal, state and local government web resources and services.